createdAt,value
2018-10-06T00:00:53.710Z,6.33
2018-10-06T00:03:22.931Z,6.30
2018-10-06T00:05:52.143Z,6.36
2018-10-06T00:08:21.382Z,6.40
2018-10-06T00:10:50.654Z,6.40
2018-10-06T00:13:19.877Z,6.28
2018-10-06T00:15:49.075Z,6.33
2018-10-06T00:18:18.288Z,6.46
2018-10-06T00:20:47.541Z,6.35
2018-10-06T00:23:16.754Z,6.19
2018-10-06T00:25:45.986Z,6.13
2018-10-06T00:28:15.244Z,6.23
2018-10-06T00:30:44.459Z,6.13
2018-10-06T00:33:13.705Z,6.11
2018-10-06T00:35:42.919Z,6.25
2018-10-06T00:38:12.190Z,6.13
2018-10-06T00:40:41.418Z,6.06
2018-10-06T00:43:10.647Z,6.03
2018-10-06T00:45:39.875Z,5.94
2018-10-06T00:48:09.229Z,5.95
2018-10-06T00:50:38.590Z,5.93
2018-10-06T00:53:07.915Z,5.91
2018-10-06T00:55:37.126Z,5.88
2018-10-06T00:58:06.346Z,5.87
2018-10-06T01:00:35.554Z,5.92
2018-10-06T01:03:04.778Z,5.88
2018-10-06T01:05:34.009Z,5.89
2018-10-06T01:08:03.230Z,5.93
2018-10-06T01:10:32.470Z,5.87
2018-10-06T01:13:01.703Z,6.10
2018-10-06T01:15:30.929Z,6.02
2018-10-06T01:18:00.167Z,5.93
2018-10-06T01:20:29.398Z,5.98
2018-10-06T01:22:58.645Z,5.91
2018-10-06T01:25:27.874Z,5.94
2018-10-06T01:27:57.110Z,5.92
2018-10-06T01:30:26.314Z,6.05
2018-10-06T01:32:55.534Z,5.94
2018-10-06T01:35:24.749Z,6.02
2018-10-06T01:37:54.029Z,5.99
2018-10-06T01:40:23.246Z,6.01
2018-10-06T01:42:52.471Z,5.98
2018-10-06T01:45:22.377Z,6.12
2018-10-06T01:47:51.595Z,6.10
2018-10-06T01:50:20.812Z,5.79
2018-10-06T01:52:50.044Z,5.75
2018-10-06T01:55:19.275Z,5.70
2018-10-06T01:57:48.494Z,5.76
2018-10-06T02:00:17.709Z,5.66
2018-10-06T02:02:46.950Z,5.63
2018-10-06T02:05:16.179Z,5.61
2018-10-06T02:07:45.403Z,5.74
2018-10-06T02:10:14.639Z,5.71
2018-10-06T02:12:43.851Z,5.60
2018-10-06T02:15:13.095Z,5.59
2018-10-06T02:17:42.603Z,5.52
2018-10-06T02:20:11.822Z,5.51
2018-10-06T02:22:41.034Z,5.61
2018-10-06T02:25:10.243Z,5.57
2018-10-06T02:27:39.449Z,5.59
2018-10-06T02:30:08.691Z,5.51
2018-10-06T02:32:37.863Z,5.47
2018-10-06T02:35:07.087Z,5.44
2018-10-06T02:37:36.307Z,5.50
2018-10-06T02:40:05.540Z,5.50
2018-10-06T02:42:34.770Z,5.65
2018-10-06T02:45:03.995Z,5.49
2018-10-06T02:47:33.213Z,5.44
2018-10-06T02:50:02.422Z,5.75
2018-10-06T02:52:31.655Z,5.41
2018-10-06T02:55:01.184Z,5.50
2018-10-06T02:57:30.398Z,5.56
2018-10-06T02:59:59.614Z,5.44
2018-10-06T03:02:28.841Z,5.38
2018-10-06T03:04:58.242Z,5.34
2018-10-06T03:07:27.477Z,5.43
2018-10-06T03:09:56.731Z,5.40
2018-10-06T03:12:25.957Z,5.45
2018-10-06T03:14:55.219Z,5.64
2018-10-06T03:17:24.439Z,5.55
2018-10-06T03:19:53.652Z,5.62
2018-10-06T03:22:23.009Z,5.65
2018-10-06T03:24:52.201Z,5.75
2018-10-06T03:27:21.419Z,5.86
2018-10-06T03:29:50.651Z,5.80
2018-10-06T03:32:19.873Z,5.80
2018-10-06T03:34:49.173Z,5.82
2018-10-06T03:37:18.359Z,5.97
2018-10-06T03:39:47.602Z,6.01
2018-10-06T03:42:16.822Z,6.00
2018-10-06T03:44:47.270Z,5.98
2018-10-06T03:47:16.511Z,6.03
2018-10-06T03:49:45.750Z,6.00
2018-10-06T03:52:14.991Z,5.98
2018-10-06T03:54:44.194Z,6.14
2018-10-06T03:57:13.433Z,6.17
2018-10-06T03:59:42.656Z,6.22
2018-10-06T04:02:11.863Z,6.22
2018-10-06T04:04:41.086Z,6.23
2018-10-06T04:07:10.318Z,6.25
2018-10-06T04:09:39.542Z,6.36
2018-10-06T04:12:08.766Z,6.47
2018-10-06T04:14:37.986Z,6.46
2018-10-06T04:17:07.304Z,6.51
2018-10-06T04:19:36.786Z,6.58
2018-10-06T04:22:06.011Z,6.58
2018-10-06T04:24:35.230Z,6.63
2018-10-06T04:27:04.470Z,6.67
2018-10-06T04:29:33.687Z,6.71
2018-10-06T04:32:02.896Z,6.75
2018-10-06T04:34:32.126Z,6.81
2018-10-06T04:37:01.372Z,7.02
2018-10-06T04:39:30.603Z,7.20
2018-10-06T04:41:59.842Z,7.11
2018-10-06T04:44:29.062Z,6.84
2018-10-06T04:46:58.291Z,6.78
2018-10-06T04:49:27.527Z,6.69
2018-10-06T04:51:56.737Z,7.02
2018-10-06T04:54:25.982Z,7.02
2018-10-06T04:56:55.219Z,7.27
2018-10-06T04:59:24.457Z,7.06
2018-10-06T05:01:53.700Z,6.84
2018-10-06T05:04:22.958Z,6.81
2018-10-06T05:06:52.201Z,6.78
2018-10-06T05:09:22.961Z,6.86
2018-10-06T05:11:52.199Z,6.89
2018-10-06T05:14:21.430Z,6.91
2018-10-06T05:16:50.654Z,6.97
2018-10-06T05:19:19.891Z,6.95
2018-10-06T05:21:49.099Z,6.95
2018-10-06T05:24:18.326Z,7.18
2018-10-06T05:26:47.542Z,7.21
2018-10-06T05:29:16.773Z,7.14
2018-10-06T05:31:46.023Z,7.28
2018-10-06T05:34:15.279Z,7.53
2018-10-06T05:36:44.489Z,7.42
2018-10-06T05:39:13.692Z,7.26
2018-10-06T05:41:42.907Z,7.14
2018-10-06T05:44:12.131Z,7.04
2018-10-06T05:46:41.358Z,7.07
2018-10-06T05:49:10.576Z,7.12
2018-10-06T05:51:39.778Z,7.19
2018-10-06T05:54:09.006Z,7.25
2018-10-06T05:56:38.220Z,7.60
2018-10-06T05:59:07.566Z,7.66
2018-10-06T06:01:36.746Z,7.79
2018-10-06T06:04:05.965Z,8.10
2018-10-06T06:06:35.179Z,8.33
2018-10-06T06:09:04.816Z,8.85
2018-10-06T06:11:34.064Z,10.41
2018-10-06T06:14:03.294Z,12.77
2018-10-06T06:16:32.531Z,14.64
2018-10-06T06:19:01.773Z,15.36
2018-10-06T06:21:30.978Z,16.12
2018-10-06T06:24:00.297Z,17.73
2018-10-06T06:26:29.479Z,19.48
2018-10-06T06:28:58.890Z,20.86
2018-10-06T06:31:28.592Z,22.16
2018-10-06T06:33:57.795Z,21.74
2018-10-06T06:36:27.023Z,22.48
2018-10-06T06:39:02.872Z,23.65
2018-10-06T06:41:32.108Z,22.55
2018-10-06T06:44:01.369Z,23.37
2018-10-06T06:46:30.589Z,24.21
2018-10-06T06:48:59.923Z,24.35
2018-10-06T06:51:29.114Z,25.10
2018-10-06T06:53:58.325Z,25.39
2018-10-06T06:56:27.562Z,27.37
2018-10-06T06:58:56.862Z,27.59
2018-10-06T07:01:26.095Z,26.78
2018-10-06T07:03:55.323Z,27.16
2018-10-06T07:06:24.546Z,26.27
2018-10-06T07:08:53.790Z,28.34
2018-10-06T07:11:23.025Z,27.98
2018-10-06T07:13:52.246Z,27.71
2018-10-06T07:16:21.479Z,29.56
2018-10-06T07:18:50.722Z,30.16
2018-10-06T07:21:19.935Z,32.73
2018-10-06T07:23:49.205Z,31.98
2018-10-06T07:26:18.451Z,30.25
2018-10-06T07:28:47.655Z,29.85
2018-10-06T07:31:16.882Z,32.34
2018-10-06T07:33:46.110Z,32.39
2018-10-06T07:41:13.845Z,31.52
2018-10-06T07:43:43.131Z,31.18
2018-10-06T07:46:12.364Z,31.91
2018-10-06T07:48:41.635Z,30.68
2018-10-06T07:51:10.866Z,27.08
2018-10-06T07:53:40.084Z,30.90
2018-10-06T07:56:09.303Z,32.25
2018-10-06T07:58:38.520Z,31.73
2018-10-06T08:01:07.827Z,31.78
2018-10-06T08:03:37.063Z,30.61
2018-10-06T08:06:06.298Z,29.91
2018-10-06T08:08:35.532Z,30.59
2018-10-06T08:11:04.770Z,32.47
2018-10-06T08:13:34.013Z,31.18
2018-10-06T08:16:03.248Z,30.03
2018-10-06T08:18:32.474Z,30.00
2018-10-06T08:21:01.719Z,32.58
2018-10-06T08:23:30.930Z,32.83
2018-10-06T08:26:00.158Z,33.04
2018-10-06T08:28:29.405Z,33.89
2018-10-06T08:30:58.615Z,36.16
2018-10-06T08:33:27.838Z,37.03
2018-10-06T08:35:57.052Z,36.52
2018-10-06T08:38:26.295Z,33.62
2018-10-06T08:40:55.522Z,34.12
2018-10-06T08:43:24.740Z,33.16
2018-10-06T08:45:53.962Z,33.94
2018-10-06T08:48:23.174Z,29.66
2018-10-06T08:50:52.459Z,27.18
2018-10-06T08:53:21.675Z,25.17
2018-10-06T08:55:50.964Z,24.18
2018-10-06T08:58:20.122Z,26.09
2018-10-06T09:00:49.352Z,26.41
2018-10-06T09:03:18.587Z,28.73
2018-10-06T09:05:47.802Z,30.27
2018-10-06T09:08:17.015Z,30.18
2018-10-06T09:10:46.308Z,28.02
2018-10-06T09:13:15.486Z,31.28
2018-10-06T09:15:44.703Z,30.94
2018-10-06T09:18:13.934Z,30.41
2018-10-06T09:20:43.155Z,30.72
2018-10-06T09:23:12.399Z,31.23
2018-10-06T09:25:41.632Z,30.74
2018-10-06T09:28:10.994Z,30.89
2018-10-06T09:30:40.263Z,29.84
2018-10-06T09:33:09.489Z,29.64
2018-10-06T09:35:38.730Z,29.04
2018-10-06T09:38:08.211Z,29.47
2018-10-06T09:40:37.483Z,28.72
2018-10-06T09:43:07.082Z,28.75
2018-10-06T09:45:37.559Z,29.11
2018-10-06T09:48:06.916Z,29.07
2018-10-06T09:50:36.166Z,28.26
2018-10-06T09:53:05.387Z,28.24
2018-10-06T09:55:34.622Z,27.49
2018-10-06T09:58:03.994Z,26.63
2018-10-06T10:00:38.349Z,28.08
2018-10-06T10:03:12.679Z,28.52
2018-10-06T10:05:49.566Z,27.30
2018-10-06T10:08:18.827Z,26.28
2018-10-06T10:10:49.047Z,27.14
2018-10-06T10:13:18.496Z,28.31
2018-10-06T10:15:47.808Z,29.61
2018-10-06T10:18:17.185Z,28.58
2018-10-06T10:20:46.351Z,29.48
2018-10-06T10:23:15.727Z,29.62
2018-10-06T10:25:45.018Z,32.68
2018-10-06T10:28:14.339Z,32.89
2018-10-06T10:30:43.534Z,32.63
2018-10-06T10:33:12.766Z,30.59
2018-10-06T10:35:42.003Z,33.64
2018-10-06T10:38:11.330Z,31.86
2018-10-06T10:40:40.639Z,36.83
2018-10-06T10:43:09.850Z,37.28
2018-10-06T10:45:39.082Z,34.29
2018-10-06T10:48:08.404Z,33.37
2018-10-06T10:50:37.711Z,29.44
2018-10-06T10:53:06.891Z,30.70
2018-10-06T10:55:36.191Z,31.64
2018-10-06T10:58:05.352Z,29.54
2018-10-06T11:00:34.617Z,28.75
2018-10-06T11:03:03.818Z,27.26
2018-10-06T11:05:33.041Z,26.54
2018-10-06T11:08:02.275Z,26.14
2018-10-06T11:10:31.502Z,28.43
2018-10-06T11:13:00.730Z,28.95
2018-10-06T11:15:29.969Z,29.47
2018-10-06T11:17:59.191Z,29.82
2018-10-06T11:20:28.451Z,30.58
2018-10-06T11:22:57.718Z,31.51
2018-10-06T11:25:26.964Z,31.50
2018-10-06T11:27:56.827Z,30.73
2018-10-06T11:30:26.068Z,30.20
2018-10-06T11:32:55.309Z,30.39
2018-10-06T11:35:24.544Z,29.54
2018-10-06T11:37:53.829Z,28.83
2018-10-06T11:40:23.011Z,29.45
2018-10-06T11:42:52.251Z,29.35
2018-10-06T11:45:21.485Z,27.69
2018-10-06T11:47:50.710Z,27.04
2018-10-06T11:50:20.011Z,26.22
2018-10-06T11:57:47.451Z,27.74
2018-10-06T12:00:16.920Z,27.90
2018-10-06T12:02:46.611Z,26.38
2018-10-06T12:05:15.845Z,25.39
2018-10-06T12:07:45.076Z,25.15
2018-10-06T12:10:14.355Z,24.93
2018-10-06T12:12:43.642Z,25.91
2018-10-06T12:15:12.905Z,26.37
2018-10-06T12:17:42.131Z,26.45
2018-10-06T12:20:11.342Z,26.07
2018-10-06T12:22:40.668Z,26.23
2018-10-06T12:25:09.915Z,26.64
2018-10-06T12:27:39.158Z,26.76
2018-10-06T12:30:08.384Z,25.67
2018-10-06T12:32:37.723Z,24.96
2018-10-06T12:35:07.019Z,25.01
2018-10-06T12:37:36.183Z,25.73
2018-10-06T12:40:05.478Z,26.91
2018-10-06T12:42:34.711Z,27.79
2018-10-06T12:45:04.007Z,27.54
2018-10-06T12:47:33.222Z,27.36
2018-10-06T12:50:02.511Z,28.40
2018-10-06T12:52:31.965Z,27.97
2018-10-06T12:55:01.191Z,29.16
2018-10-06T12:57:30.622Z,28.42
2018-10-06T12:59:59.909Z,27.88
2018-10-06T13:02:29.062Z,28.56
2018-10-06T13:04:58.322Z,30.05
2018-10-06T13:07:27.552Z,28.95
2018-10-06T13:09:56.816Z,28.54
2018-10-06T13:12:26.031Z,29.12
2018-10-06T13:14:55.266Z,26.88
2018-10-06T13:17:24.510Z,27.28
2018-10-06T13:19:53.750Z,27.82
2018-10-06T13:22:22.967Z,27.92
2018-10-06T13:24:52.218Z,27.44
2018-10-06T13:27:21.550Z,26.38
2018-10-06T13:29:50.769Z,25.34
2018-10-06T13:32:19.999Z,25.70
2018-10-06T13:34:49.232Z,25.47
2018-10-06T13:37:18.467Z,25.22
2018-10-06T13:39:47.715Z,25.11
2018-10-06T13:42:16.947Z,25.29
2018-10-06T13:44:46.289Z,25.48
2018-10-06T13:47:15.502Z,25.29
2018-10-06T13:49:46.524Z,25.32
2018-10-06T13:52:15.776Z,25.01
2018-10-06T13:54:44.994Z,24.74
2018-10-06T13:57:14.237Z,24.50
2018-10-06T13:59:43.466Z,24.58
2018-10-06T14:02:12.729Z,24.72
2018-10-06T14:04:41.910Z,24.54
2018-10-06T14:07:11.129Z,24.38
2018-10-06T14:09:40.354Z,24.38
2018-10-06T14:12:09.851Z,24.55
2018-10-06T14:14:39.083Z,24.20
2018-10-06T14:17:08.302Z,24.39
2018-10-06T14:19:37.546Z,24.05
2018-10-06T14:22:06.800Z,23.94
2018-10-06T14:24:36.045Z,24.06
2018-10-06T14:27:05.362Z,23.85
2018-10-06T14:29:34.707Z,23.89
2018-10-06T14:32:03.952Z,23.83
2018-10-06T14:34:33.179Z,23.87
2018-10-06T14:37:02.407Z,24.01
2018-10-06T14:39:31.650Z,23.93
2018-10-06T14:42:00.906Z,23.67
2018-10-06T14:44:30.252Z,23.57
2018-10-06T14:46:59.424Z,23.27
2018-10-06T14:49:28.738Z,23.42
2018-10-06T14:51:58.035Z,23.31
2018-10-06T14:54:27.260Z,23.46
2018-10-06T14:56:56.558Z,23.08
2018-10-06T14:59:25.753Z,23.17
2018-10-06T15:01:56.214Z,23.28
2018-10-06T15:04:25.640Z,23.27
2018-10-06T15:06:54.850Z,23.05
2018-10-06T15:09:24.091Z,22.63
2018-10-06T15:11:53.314Z,22.43
2018-10-06T15:14:22.562Z,22.34
2018-10-06T15:16:51.811Z,22.11
2018-10-06T15:19:21.046Z,21.56
2018-10-06T15:21:50.281Z,21.11
2018-10-06T15:24:19.558Z,21.04
2018-10-06T15:26:48.858Z,20.83
2018-10-06T15:29:18.100Z,20.81
2018-10-06T15:31:47.365Z,20.69
2018-10-06T15:34:16.727Z,20.59
2018-10-06T15:36:46.254Z,20.12
2018-10-06T15:39:15.461Z,19.91
2018-10-06T15:41:44.639Z,20.39
2018-10-06T15:44:13.869Z,19.97
2018-10-06T15:46:43.094Z,19.65
2018-10-06T15:49:13.303Z,19.43
2018-10-06T15:51:42.543Z,19.18
2018-10-06T15:54:11.771Z,18.89
2018-10-06T15:56:40.998Z,18.57
2018-10-06T15:59:10.251Z,18.33
2018-10-06T16:01:39.471Z,18.08
2018-10-06T16:04:08.715Z,17.81
2018-10-06T16:06:37.938Z,17.65
2018-10-06T16:09:07.890Z,17.50
2018-10-06T16:11:37.463Z,17.33
2018-10-06T16:14:06.800Z,17.16
2018-10-06T16:16:36.102Z,17.06
2018-10-06T16:19:05.336Z,16.94
2018-10-06T16:21:34.606Z,16.77
2018-10-06T16:24:03.814Z,16.59
2018-10-06T16:26:33.071Z,16.45
2018-10-06T16:29:02.317Z,16.37
2018-10-06T16:31:31.548Z,16.21
2018-10-06T16:34:01.108Z,16.13
2018-10-06T16:36:30.429Z,16.58
2018-10-06T16:38:59.748Z,16.43
2018-10-06T16:41:29.153Z,16.30
2018-10-06T16:43:58.878Z,16.09
2018-10-06T16:46:28.251Z,16.10
2018-10-06T16:48:57.759Z,15.53
2018-10-06T16:51:27.090Z,15.39
2018-10-06T16:53:56.564Z,15.15
2018-10-06T16:56:25.907Z,15.05
2018-10-06T16:58:55.299Z,15.01
2018-10-06T17:01:24.677Z,15.02
2018-10-06T17:03:54.335Z,15.31
2018-10-06T17:06:23.698Z,14.99
2018-10-06T17:08:53.048Z,14.86
2018-10-06T17:11:22.416Z,14.78
2018-10-06T17:13:51.831Z,14.68
2018-10-06T17:16:21.324Z,14.63
2018-10-06T17:18:50.729Z,14.87
2018-10-06T17:21:20.098Z,15.11
2018-10-06T17:23:49.411Z,15.10
2018-10-06T17:26:18.769Z,14.93
2018-10-06T17:28:48.136Z,15.08
2018-10-06T17:31:17.626Z,14.81
2018-10-06T17:33:46.867Z,14.92
2018-10-06T17:36:16.274Z,14.76
2018-10-06T17:38:45.775Z,14.50
2018-10-06T17:41:15.133Z,14.30
2018-10-06T17:43:44.587Z,14.27
2018-10-06T17:46:13.987Z,14.27
2018-10-06T17:48:43.347Z,14.29
2018-10-06T17:51:12.736Z,14.34
2018-10-06T17:53:42.137Z,14.44
2018-10-06T17:56:11.504Z,14.42
2018-10-06T17:58:40.913Z,14.42
2018-10-06T18:01:10.250Z,14.42
2018-10-06T18:03:39.611Z,14.64
2018-10-06T18:06:08.979Z,14.95
2018-10-06T18:08:38.357Z,14.49
2018-10-06T18:11:07.927Z,14.20
2018-10-06T18:13:37.307Z,14.08
2018-10-06T18:16:06.750Z,14.05
2018-10-06T18:18:36.125Z,14.03
2018-10-06T18:21:05.583Z,14.00
2018-10-06T18:23:34.901Z,14.45
2018-10-06T18:26:04.253Z,14.12
2018-10-06T18:28:33.690Z,14.08
2018-10-06T18:31:03.075Z,14.02
2018-10-06T18:33:32.707Z,14.00
2018-10-06T18:36:03.377Z,14.12
2018-10-06T18:38:32.757Z,13.94
2018-10-06T18:41:02.122Z,13.74
2018-10-06T18:43:31.568Z,13.64
2018-10-06T18:46:00.839Z,13.60
2018-10-06T18:48:30.220Z,13.60
2018-10-06T18:50:59.590Z,13.60
2018-10-06T18:53:28.942Z,13.54
2018-10-06T18:55:58.313Z,13.46
2018-10-06T18:58:27.749Z,13.44
2018-10-06T19:00:57.153Z,13.38
2018-10-06T19:03:26.606Z,13.38
2018-10-06T19:05:55.977Z,13.39
2018-10-06T19:08:25.385Z,13.42
2018-10-06T19:10:54.952Z,13.47
2018-10-06T19:13:24.319Z,13.46
2018-10-06T19:15:53.706Z,13.45
2018-10-06T19:18:23.117Z,13.36
2018-10-06T19:20:52.614Z,13.38
2018-10-06T19:23:21.943Z,13.36
2018-10-06T19:25:51.423Z,13.34
2018-10-06T19:28:20.739Z,13.30
2018-10-06T19:30:50.140Z,13.42
2018-10-06T19:33:19.491Z,13.43
2018-10-06T19:35:48.854Z,13.72
2018-10-06T19:38:18.167Z,13.65
2018-10-06T19:40:47.531Z,13.76
2018-10-06T19:43:16.930Z,13.54
2018-10-06T19:45:46.389Z,13.40
2018-10-06T19:48:15.785Z,13.63
2018-10-06T19:50:45.201Z,13.55
2018-10-06T19:53:14.643Z,13.36
2018-10-06T19:55:44.024Z,13.21
2018-10-06T19:58:13.373Z,13.11
2018-10-06T20:00:42.807Z,13.12
2018-10-06T20:03:12.169Z,13.03
2018-10-06T20:05:41.577Z,13.06
2018-10-06T20:08:10.945Z,13.14
2018-10-06T20:10:40.338Z,13.34
2018-10-06T20:13:09.691Z,13.15
2018-10-06T20:15:39.032Z,13.05
2018-10-06T20:18:08.429Z,13.23
2018-10-06T20:20:37.800Z,13.46
2018-10-06T20:23:07.337Z,13.37
2018-10-06T20:25:36.687Z,13.14
2018-10-06T20:28:06.137Z,13.06
2018-10-06T20:30:35.547Z,13.04
2018-10-06T20:33:05.111Z,13.04
2018-10-06T20:35:34.535Z,12.99
2018-10-06T20:38:04.044Z,12.97
2018-10-06T20:40:33.442Z,12.95
2018-10-06T20:43:02.890Z,13.17
2018-10-06T20:45:32.350Z,13.19
2018-10-06T20:48:01.679Z,13.04
2018-10-06T20:50:31.167Z,13.33
2018-10-06T20:53:00.628Z,13.34
2018-10-06T20:55:30.111Z,13.25
2018-10-06T20:57:59.473Z,13.54
2018-10-06T21:00:29.081Z,13.34
2018-10-06T21:02:58.511Z,13.13
2018-10-06T21:05:28.049Z,13.06
2018-10-06T21:07:57.622Z,13.00
2018-10-06T21:10:27.058Z,12.98
2018-10-06T21:12:56.623Z,12.97
2018-10-06T21:15:26.139Z,13.29
2018-10-06T21:17:55.623Z,13.22
2018-10-06T21:20:25.137Z,13.53
2018-10-06T21:22:54.640Z,13.86
2018-10-06T21:25:23.990Z,13.97
2018-10-06T21:27:53.506Z,14.04
2018-10-06T21:30:23.012Z,14.09
2018-10-06T21:32:52.829Z,14.08
2018-10-06T21:35:22.319Z,14.12
2018-10-06T21:37:51.924Z,14.10
2018-10-06T21:40:21.679Z,14.18
2018-10-06T21:42:51.116Z,14.27
2018-10-06T21:45:20.573Z,14.33
2018-10-06T21:47:49.967Z,14.38
2018-10-06T21:50:19.433Z,14.41
2018-10-06T21:52:48.855Z,14.16
2018-10-06T21:55:18.231Z,14.07
2018-10-06T21:57:47.627Z,13.92
2018-10-06T22:00:16.967Z,13.92
2018-10-06T22:02:46.670Z,14.35
2018-10-06T22:05:16.083Z,14.42
2018-10-06T22:07:45.589Z,14.31
2018-10-06T22:10:14.992Z,14.24
2018-10-06T22:12:44.364Z,14.07
2018-10-06T22:15:13.809Z,13.88
2018-10-06T22:17:43.055Z,13.87
2018-10-06T22:20:12.383Z,13.57
2018-10-06T22:22:41.648Z,13.42
2018-10-06T22:25:11.057Z,13.44
2018-10-06T22:27:40.590Z,13.41
2018-10-06T22:30:10.048Z,13.38
2018-10-06T22:32:40.472Z,13.37
2018-10-06T22:35:09.837Z,13.45
2018-10-06T22:37:39.255Z,13.60
2018-10-06T22:40:08.896Z,13.66
2018-10-06T22:42:38.315Z,13.86
2018-10-06T22:45:07.851Z,13.91
2018-10-06T22:47:37.195Z,13.49
2018-10-06T22:50:07.254Z,13.29
2018-10-06T22:52:36.905Z,13.21
2018-10-06T22:55:06.372Z,13.14
2018-10-06T22:57:35.882Z,13.13
2018-10-06T23:00:05.379Z,13.09
2018-10-06T23:02:35.058Z,13.03
2018-10-06T23:05:04.433Z,13.07
2018-10-06T23:07:33.772Z,13.09
2018-10-06T23:10:03.259Z,13.12
2018-10-06T23:12:32.601Z,13.07
2018-10-06T23:15:02.003Z,13.17
2018-10-06T23:17:31.401Z,13.27
2018-10-06T23:20:00.766Z,13.17
2018-10-06T23:22:30.179Z,13.21
2018-10-06T23:24:59.460Z,13.51
2018-10-06T23:27:29.105Z,13.54
2018-10-06T23:29:58.488Z,13.24
2018-10-06T23:32:27.842Z,13.10
2018-10-06T23:34:57.284Z,13.09
2018-10-06T23:37:26.647Z,13.25
2018-10-06T23:39:55.955Z,13.31
2018-10-06T23:42:25.255Z,13.09
2018-10-06T23:44:54.600Z,13.36
2018-10-06T23:47:23.971Z,13.48
2018-10-06T23:49:53.358Z,13.60
2018-10-06T23:52:22.683Z,13.60
2018-10-06T23:54:52.007Z,13.18
2018-10-06T23:57:21.389Z,13.09
2018-10-06T23:59:50.723Z,13.01
